createdAt,value
2018-12-13T00:01:22.771Z,73.33
2018-12-13T00:03:51.092Z,73.50
2018-12-13T00:06:19.406Z,73.18
2018-12-13T00:08:47.742Z,73.07
2018-12-13T00:11:16.050Z,74.30
2018-12-13T00:13:44.511Z,73.78
2018-12-13T00:16:12.833Z,73.65
2018-12-13T00:18:41.262Z,74.37
2018-12-13T00:21:09.813Z,74.27
2018-12-13T00:23:38.261Z,73.98
2018-12-13T00:26:06.661Z,73.47
2018-12-13T00:28:35.027Z,73.19
2018-12-13T00:31:03.317Z,73.83
2018-12-13T00:33:31.629Z,74.49
2018-12-13T00:36:00.009Z,74.29
2018-12-13T00:38:28.338Z,75.15
2018-12-13T00:40:56.766Z,74.85
2018-12-13T00:43:25.426Z,74.39
2018-12-13T00:45:53.837Z,74.22
2018-12-13T00:48:22.152Z,74.19
2018-12-13T00:50:50.559Z,74.02
2018-12-13T00:53:19.259Z,74.22
2018-12-13T00:55:47.585Z,74.66
2018-12-13T00:58:15.943Z,74.22
2018-12-13T01:00:44.245Z,74.76
2018-12-13T01:03:12.705Z,74.96
2018-12-13T01:05:41.238Z,75.34
2018-12-13T01:08:09.625Z,74.99
2018-12-13T01:10:38.037Z,74.53
2018-12-13T01:13:06.392Z,74.19
2018-12-13T01:15:34.737Z,75.07
2018-12-13T01:18:03.138Z,75.11
2018-12-13T01:20:31.459Z,74.78
2018-12-13T01:22:59.867Z,73.99
2018-12-13T01:25:28.254Z,73.68
2018-12-13T01:27:56.796Z,73.77
2018-12-13T01:30:25.209Z,73.88
2018-12-13T01:32:53.496Z,74.00
2018-12-13T01:35:21.828Z,74.08
2018-12-13T01:37:50.153Z,73.35
2018-12-13T01:40:18.459Z,73.54
2018-12-13T01:42:46.774Z,73.51
2018-12-13T01:45:15.058Z,73.37
2018-12-13T01:47:43.383Z,73.38
2018-12-13T01:50:11.821Z,73.80
2018-12-13T01:52:40.114Z,74.98
2018-12-13T01:55:08.401Z,76.74
2018-12-13T01:57:36.744Z,76.75
2018-12-13T02:00:05.965Z,75.29
2018-12-13T02:02:34.280Z,75.43
2018-12-13T02:05:02.621Z,75.61
2018-12-13T02:07:30.949Z,75.75
2018-12-13T02:09:59.263Z,76.27
2018-12-13T02:12:27.705Z,75.72
2018-12-13T02:14:56.003Z,76.22
2018-12-13T02:17:24.306Z,76.29
2018-12-13T02:19:52.669Z,76.46
2018-12-13T02:22:20.982Z,75.66
2018-12-13T02:24:49.291Z,74.52
2018-12-13T02:27:17.619Z,75.54
2018-12-13T02:29:45.917Z,75.84
2018-12-13T02:32:14.209Z,75.78
2018-12-13T02:34:42.816Z,76.23
2018-12-13T02:37:15.712Z,75.12
2018-12-13T02:39:44.046Z,75.08
2018-12-13T02:42:12.493Z,75.78
2018-12-13T02:44:42.728Z,75.75
2018-12-13T02:47:11.077Z,75.48
2018-12-13T02:49:39.542Z,74.62
2018-12-13T02:52:07.885Z,74.73
2018-12-13T02:54:36.385Z,74.52
2018-12-13T02:57:04.797Z,74.03
2018-12-13T02:59:33.182Z,74.51
2018-12-13T03:02:01.508Z,73.92
2018-12-13T03:04:29.887Z,74.77
2018-12-13T03:06:58.181Z,74.26
2018-12-13T03:09:26.595Z,74.53
2018-12-13T03:11:54.952Z,74.03
2018-12-13T03:14:23.293Z,74.63
2018-12-13T03:16:51.884Z,74.42
2018-12-13T03:19:20.235Z,73.36
2018-12-13T03:21:48.598Z,74.08
2018-12-13T03:24:17.049Z,73.43
2018-12-13T03:26:45.364Z,74.21
2018-12-13T03:29:13.687Z,74.23
2018-12-13T03:31:42.031Z,75.97
2018-12-13T03:34:10.408Z,74.93
2018-12-13T03:36:38.778Z,75.22
2018-12-13T03:39:08.000Z,74.44
2018-12-13T03:41:36.529Z,74.64
2018-12-13T03:44:04.864Z,73.71
2018-12-13T03:46:33.187Z,74.76
2018-12-13T03:49:01.550Z,74.97
2018-12-13T03:51:29.872Z,74.73
2018-12-13T03:53:58.246Z,75.28
2018-12-13T03:56:26.594Z,74.64
2018-12-13T03:58:54.939Z,75.19
2018-12-13T04:01:23.497Z,74.62
2018-12-13T04:03:51.860Z,74.95
2018-12-13T04:06:20.155Z,75.09
2018-12-13T04:08:48.536Z,74.77
2018-12-13T04:11:16.869Z,74.74
2018-12-13T04:13:45.221Z,73.92
2018-12-13T04:16:13.774Z,74.80
2018-12-13T04:18:42.103Z,75.45
2018-12-13T04:21:10.416Z,75.11
2018-12-13T04:23:38.973Z,74.35
2018-12-13T04:26:07.286Z,74.57
2018-12-13T04:28:35.640Z,73.64
2018-12-13T04:31:03.998Z,73.03
2018-12-13T04:33:32.281Z,72.99
2018-12-13T04:36:00.576Z,72.99
2018-12-13T04:38:28.911Z,73.30
2018-12-13T04:40:57.244Z,73.19
2018-12-13T04:43:25.556Z,72.97
2018-12-13T04:45:54.206Z,71.76
2018-12-13T04:48:22.518Z,72.75
2018-12-13T04:50:50.806Z,77.58
2018-12-13T04:53:19.175Z,76.29
2018-12-13T04:55:47.472Z,74.16
2018-12-13T04:58:15.888Z,74.18
2018-12-13T05:00:44.250Z,74.10
2018-12-13T05:03:12.550Z,73.66
2018-12-13T05:05:40.852Z,73.59
2018-12-13T05:08:09.334Z,72.75
2018-12-13T05:10:51.016Z,73.00
2018-12-13T05:13:19.620Z,72.13
2018-12-13T05:15:47.971Z,72.86
2018-12-13T05:18:16.310Z,73.18
2018-12-13T05:20:44.651Z,72.90
2018-12-13T05:23:13.060Z,72.67
2018-12-13T05:25:41.338Z,72.20
2018-12-13T05:28:10.028Z,72.72
2018-12-13T05:30:38.368Z,73.29
2018-12-13T05:33:06.713Z,73.88
2018-12-13T05:35:35.054Z,74.19
2018-12-13T05:38:03.363Z,73.93
2018-12-13T05:40:31.638Z,74.19
2018-12-13T05:42:59.973Z,74.05
2018-12-13T05:45:28.264Z,74.92
2018-12-13T05:47:56.565Z,74.02
2018-12-13T05:50:25.105Z,74.43
2018-12-13T05:52:53.416Z,73.92
2018-12-13T05:55:21.687Z,74.98
2018-12-13T05:57:50.030Z,73.10
2018-12-13T06:00:18.464Z,73.87
2018-12-13T06:02:46.803Z,73.59
2018-12-13T06:05:15.109Z,73.67
2018-12-13T06:07:43.438Z,74.68
2018-12-13T06:10:11.759Z,74.81
2018-12-13T06:12:40.250Z,74.72
2018-12-13T06:15:08.609Z,74.46
2018-12-13T06:17:36.924Z,74.83
2018-12-13T06:20:05.428Z,75.29
2018-12-13T06:22:33.782Z,74.33
2018-12-13T06:25:02.108Z,75.06
2018-12-13T06:27:30.438Z,74.96
2018-12-13T06:29:59.249Z,75.21
2018-12-13T06:32:27.648Z,75.23
2018-12-13T06:34:56.111Z,74.18
2018-12-13T06:37:24.413Z,74.01
2018-12-13T06:39:53.640Z,74.26
2018-12-13T06:42:21.945Z,74.14
2018-12-13T06:44:50.274Z,74.39
2018-12-13T06:47:18.601Z,75.19
2018-12-13T06:49:46.907Z,75.28
2018-12-13T06:52:15.210Z,75.64
2018-12-13T06:54:43.533Z,75.36
2018-12-13T06:57:12.077Z,74.34
2018-12-13T06:59:40.478Z,74.50
2018-12-13T07:02:08.873Z,73.61
2018-12-13T07:04:37.193Z,73.94
2018-12-13T07:07:05.508Z,74.07
2018-12-13T07:09:33.819Z,74.50
2018-12-13T07:12:02.174Z,73.90
2018-12-13T07:14:30.535Z,74.42
2018-12-13T07:16:58.919Z,74.73
2018-12-13T07:19:27.418Z,74.78
2018-12-13T07:21:55.720Z,74.37
2018-12-13T07:24:24.018Z,74.93
2018-12-13T07:26:52.387Z,73.23
2018-12-13T07:29:20.676Z,73.37
2018-12-13T07:31:49.039Z,73.25
2018-12-13T07:34:17.362Z,72.67
2018-12-13T07:36:45.697Z,74.32
2018-12-13T07:39:13.982Z,73.92
2018-12-13T07:41:42.576Z,74.32
2018-12-13T07:44:10.886Z,73.67
2018-12-13T07:46:39.184Z,75.18
2018-12-13T07:49:07.522Z,74.46
2018-12-13T07:51:35.853Z,74.78
2018-12-13T07:54:04.247Z,74.56
2018-12-13T07:56:32.584Z,73.93
2018-12-13T07:59:01.064Z,73.77
2018-12-13T08:01:29.328Z,73.29
2018-12-13T08:03:57.814Z,71.42
2018-12-13T08:06:26.165Z,66.70
2018-12-13T08:08:54.465Z,63.64
2018-12-13T08:11:22.895Z,57.75
2018-12-13T08:13:51.237Z,55.29
2018-12-13T08:16:19.607Z,53.56
2018-12-13T08:18:47.933Z,51.05
2018-12-13T08:21:16.240Z,48.75
2018-12-13T08:23:44.603Z,47.18
2018-12-13T08:26:13.053Z,45.44
2018-12-13T08:28:41.369Z,43.67
2018-12-13T08:31:09.714Z,42.06
2018-12-13T08:33:38.130Z,40.22
2018-12-13T08:36:06.509Z,39.77
2018-12-13T08:38:34.928Z,39.53
2018-12-13T08:41:03.319Z,39.49
2018-12-13T08:43:31.626Z,39.93
2018-12-13T08:45:59.959Z,37.38
2018-12-13T08:48:28.581Z,36.47
2018-12-13T08:50:56.951Z,35.06
2018-12-13T08:53:25.344Z,35.27
2018-12-13T08:55:54.216Z,33.31
2018-12-13T08:58:22.590Z,31.92
2018-12-13T09:00:51.029Z,32.67
2018-12-13T09:03:19.390Z,31.59
2018-12-13T09:05:48.732Z,29.92
2018-12-13T09:08:17.046Z,30.31
2018-12-13T09:10:45.432Z,30.03
2018-12-13T09:13:13.768Z,28.57
2018-12-13T09:15:42.094Z,28.89
2018-12-13T09:18:10.490Z,29.80
2018-12-13T09:20:38.819Z,29.71
2018-12-13T09:23:07.185Z,28.88
2018-12-13T09:25:35.495Z,28.35
2018-12-13T09:28:03.872Z,26.92
2018-12-13T09:30:32.215Z,26.83
2018-12-13T09:33:00.769Z,27.42
2018-12-13T09:35:29.112Z,27.83
2018-12-13T09:37:57.595Z,28.05
2018-12-13T09:40:25.946Z,28.15
2018-12-13T09:42:54.260Z,28.31
2018-12-13T09:45:22.563Z,27.94
2018-12-13T09:47:50.896Z,28.69
2018-12-13T09:50:19.185Z,30.65
2018-12-13T09:52:47.545Z,32.28
2018-12-13T09:55:16.077Z,33.05
2018-12-13T09:57:44.405Z,32.01
2018-12-13T10:00:12.751Z,30.08
2018-12-13T10:02:41.287Z,28.45
2018-12-13T10:05:09.622Z,27.08
2018-12-13T10:10:05.836Z,32.80
2018-12-13T10:12:34.152Z,35.33
2018-12-13T10:15:02.478Z,38.96
2018-12-13T10:17:30.974Z,43.50
2018-12-13T10:19:59.263Z,47.07
2018-12-13T10:22:28.689Z,49.71
2018-12-13T10:24:57.191Z,51.85
2018-12-13T10:27:26.267Z,53.58
2018-12-13T10:29:54.617Z,55.64
2018-12-13T10:32:22.945Z,56.31
2018-12-13T10:34:51.238Z,56.92
2018-12-13T10:37:19.565Z,57.78
2018-12-13T10:39:48.069Z,58.81
2018-12-13T10:42:16.364Z,59.62
2018-12-13T10:44:44.673Z,60.25
2018-12-13T10:47:13.072Z,60.78
2018-12-13T10:49:41.338Z,60.12
2018-12-13T10:52:09.669Z,60.17
2018-12-13T10:54:38.014Z,61.95
2018-12-13T10:57:06.344Z,62.01
2018-12-13T10:59:34.755Z,62.68
2018-12-13T11:02:05.181Z,63.02
2018-12-13T11:04:33.478Z,63.13
2018-12-13T11:07:01.797Z,63.21
2018-12-13T11:09:30.139Z,63.36
2018-12-13T11:11:58.421Z,63.69
2018-12-13T11:14:26.779Z,63.10
2018-12-13T11:16:55.137Z,62.58
2018-12-13T11:19:23.425Z,62.63
2018-12-13T11:21:51.711Z,63.12
2018-12-13T11:24:20.086Z,62.38
2018-12-13T11:26:48.392Z,62.42
2018-12-13T11:29:34.337Z,62.57
2018-12-13T11:32:02.625Z,63.13
2018-12-13T11:34:30.981Z,62.42
2018-12-13T11:36:59.426Z,62.73
2018-12-13T11:39:27.742Z,63.53
2018-12-13T11:41:56.038Z,63.01
2018-12-13T11:44:26.297Z,63.03
2018-12-13T11:46:54.579Z,62.92
2018-12-13T11:49:22.895Z,62.47
2018-12-13T11:51:51.347Z,62.73
2018-12-13T11:54:25.442Z,63.70
2018-12-13T11:56:53.755Z,63.45
2018-12-13T11:59:22.042Z,63.86
2018-12-13T12:01:50.316Z,63.59
2018-12-13T12:04:18.961Z,63.29
2018-12-13T12:06:47.382Z,63.56
2018-12-13T12:09:15.680Z,63.52
2018-12-13T12:11:43.989Z,63.78
2018-12-13T12:14:12.326Z,62.75
2018-12-13T12:16:40.629Z,62.79
2018-12-13T12:19:08.970Z,63.90
2018-12-13T12:21:37.259Z,63.21
2018-12-13T12:24:05.570Z,63.74
2018-12-13T12:26:34.105Z,64.10
2018-12-13T12:29:02.466Z,63.69
2018-12-13T12:31:30.839Z,63.54
2018-12-13T12:33:59.181Z,63.69
2018-12-13T12:36:27.533Z,64.13
2018-12-13T12:38:55.841Z,63.92
2018-12-13T12:41:24.183Z,63.91
2018-12-13T12:43:52.488Z,64.00
2018-12-13T12:46:21.293Z,64.16
2018-12-13T12:48:49.910Z,65.25
2018-12-13T12:51:18.224Z,64.90
2018-12-13T12:53:46.524Z,64.93
2018-12-13T12:56:14.878Z,64.79
2018-12-13T12:58:43.209Z,65.05
2018-12-13T13:01:11.525Z,65.70
2018-12-13T13:03:39.861Z,65.02
2018-12-13T13:06:08.437Z,65.34
2018-12-13T13:08:36.775Z,65.37
2018-12-13T13:11:06.072Z,65.36
2018-12-13T13:13:34.400Z,65.44
2018-12-13T13:16:02.716Z,65.86
2018-12-13T13:18:32.207Z,65.95
2018-12-13T13:21:00.632Z,65.72
2018-12-13T13:23:28.956Z,66.49
2018-12-13T13:25:57.314Z,65.69
2018-12-13T13:28:25.638Z,66.92
2018-12-13T13:30:53.969Z,66.95
2018-12-13T13:33:22.550Z,66.98
2018-12-13T13:35:50.863Z,66.48
2018-12-13T13:38:19.303Z,66.90
2018-12-13T13:40:47.745Z,67.27
2018-12-13T13:43:16.122Z,67.80
2018-12-13T13:45:44.442Z,67.60
2018-12-13T13:48:12.778Z,67.28
2018-12-13T13:50:41.086Z,67.59
2018-12-13T13:53:09.471Z,68.35
2018-12-13T13:55:37.861Z,67.85
2018-12-13T13:58:06.208Z,67.62
2018-12-13T14:00:34.541Z,67.96
2018-12-13T14:03:02.920Z,66.73
2018-12-13T14:05:31.285Z,66.93
2018-12-13T14:07:59.941Z,68.19
2018-12-13T14:10:28.417Z,68.61
2018-12-13T14:12:56.740Z,67.86
2018-12-13T14:15:25.053Z,68.27
2018-12-13T14:17:53.586Z,68.42
2018-12-13T14:20:21.900Z,69.50
2018-12-13T14:22:50.453Z,69.21
2018-12-13T14:25:18.810Z,69.33
2018-12-13T14:27:47.142Z,69.18
2018-12-13T14:30:15.447Z,69.57
2018-12-13T14:32:43.819Z,69.89
2018-12-13T14:35:12.181Z,70.16
2018-12-13T14:37:40.511Z,69.34
2018-12-13T14:40:09.086Z,69.21
2018-12-13T14:42:37.429Z,69.58
2018-12-13T14:45:06.116Z,69.35
2018-12-13T14:47:34.434Z,69.29
2018-12-13T14:50:02.790Z,69.80
2018-12-13T14:52:31.118Z,69.89
2018-12-13T14:54:59.449Z,69.27
2018-12-13T14:57:27.779Z,68.99
2018-12-13T14:59:56.124Z,68.90
2018-12-13T15:02:24.651Z,69.11
2018-12-13T15:04:53.376Z,69.50
2018-12-13T15:07:21.690Z,69.76
2018-12-13T15:09:51.088Z,69.61
2018-12-13T15:12:19.684Z,70.12
2018-12-13T15:14:48.040Z,69.28
2018-12-13T15:17:16.438Z,69.25
2018-12-13T15:19:44.753Z,70.47
2018-12-13T15:22:13.067Z,70.73
2018-12-13T15:24:41.465Z,70.69
2018-12-13T15:27:09.791Z,70.55
2018-12-13T15:29:38.093Z,70.38
2018-12-13T15:32:06.467Z,69.63
2018-12-13T15:34:34.754Z,69.65
2018-12-13T15:37:03.125Z,70.06
2018-12-13T15:39:31.463Z,70.42
2018-12-13T15:41:59.821Z,71.49
2018-12-13T15:44:28.191Z,71.19
2018-12-13T15:46:56.709Z,71.03
2018-12-13T15:49:25.475Z,70.75
2018-12-13T15:51:53.790Z,69.99
2018-12-13T15:54:22.123Z,71.08
2018-12-13T15:56:50.443Z,71.30
2018-12-13T15:59:18.751Z,70.72
2018-12-13T16:01:47.101Z,71.08
2018-12-13T16:04:15.424Z,71.54
2018-12-13T16:06:43.767Z,71.36
2018-12-13T16:09:12.176Z,71.99
2018-12-13T16:11:40.544Z,71.04
2018-12-13T16:14:08.850Z,71.44
2018-12-13T16:16:37.227Z,71.34
2018-12-13T16:19:05.553Z,72.02
2018-12-13T16:21:33.939Z,72.58
2018-12-13T16:24:02.295Z,71.63
2018-12-13T16:26:30.582Z,71.56
2018-12-13T16:28:58.932Z,72.35
2018-12-13T16:31:27.694Z,72.14
2018-12-13T16:33:56.017Z,72.12
2018-12-13T16:36:24.399Z,72.72
2018-12-13T16:38:52.824Z,72.61
2018-12-13T16:41:21.205Z,72.68
2018-12-13T16:43:49.509Z,72.25
2018-12-13T16:46:17.858Z,72.60
2018-12-13T16:48:46.240Z,72.74
2018-12-13T16:51:14.570Z,72.77
2018-12-13T16:53:43.077Z,72.59
2018-12-13T16:56:11.506Z,72.16
2018-12-13T16:58:39.891Z,72.68
2018-12-13T17:01:08.265Z,73.15
2018-12-13T17:03:41.371Z,72.64
2018-12-13T17:06:09.812Z,73.52
2018-12-13T17:08:38.157Z,74.00
2018-12-13T17:11:06.596Z,73.78
2018-12-13T17:13:35.072Z,73.75
2018-12-13T17:16:03.370Z,73.91
2018-12-13T17:18:31.830Z,73.95
2018-12-13T17:21:00.311Z,73.59
2018-12-13T17:23:28.705Z,73.62
2018-12-13T17:25:57.065Z,73.23
2018-12-13T17:28:25.499Z,72.80
2018-12-13T17:30:53.828Z,73.94
2018-12-13T17:33:22.221Z,72.83
2018-12-13T17:35:50.869Z,74.17
2018-12-13T17:38:19.197Z,72.78
2018-12-13T17:40:47.539Z,73.16
2018-12-13T17:43:16.028Z,74.19
2018-12-13T17:45:44.344Z,73.58
2018-12-13T17:48:12.700Z,74.06
2018-12-13T17:50:41.117Z,73.78
2018-12-13T17:53:09.482Z,73.84
2018-12-13T17:55:37.884Z,73.07
2018-12-13T17:58:06.448Z,72.62
2018-12-13T18:00:34.787Z,73.60
2018-12-13T18:03:03.137Z,74.33
2018-12-13T18:05:31.552Z,74.84
2018-12-13T18:07:59.924Z,74.90
2018-12-13T18:10:29.541Z,74.79
2018-12-13T18:12:58.004Z,75.10
2018-12-13T18:15:26.320Z,74.65
2018-12-13T18:17:54.682Z,74.91
2018-12-13T18:20:23.139Z,75.64
2018-12-13T18:22:51.607Z,75.19
2018-12-13T18:25:20.043Z,74.96
2018-12-13T18:27:48.485Z,74.58
2018-12-13T18:30:16.816Z,75.58
2018-12-13T18:32:45.166Z,75.60
2018-12-13T18:35:13.496Z,75.55
2018-12-13T18:37:41.831Z,75.65
2018-12-13T18:40:11.613Z,75.22
2018-12-13T18:42:40.415Z,75.47
2018-12-13T18:45:08.854Z,75.69
2018-12-13T18:47:37.242Z,75.16
2018-12-13T18:50:06.371Z,76.92
2018-12-13T18:52:34.767Z,76.14
2018-12-13T18:55:03.253Z,76.92
2018-12-13T18:57:31.636Z,76.22
2018-12-13T18:59:59.979Z,76.38
2018-12-13T19:02:28.285Z,76.52
2018-12-13T19:04:56.791Z,76.22
2018-12-13T19:07:25.083Z,75.47
2018-12-13T19:09:53.481Z,76.52
2018-12-13T19:12:21.930Z,75.46
2018-12-13T19:14:50.269Z,77.26
2018-12-13T19:17:18.746Z,77.34
2018-12-13T19:19:47.111Z,77.02
2018-12-13T19:22:15.411Z,76.24
2018-12-13T19:24:43.792Z,75.49
2018-12-13T19:27:12.526Z,75.56
2018-12-13T19:29:40.868Z,75.25
2018-12-13T19:32:09.239Z,76.62
2018-12-13T19:34:37.641Z,74.99
2018-12-13T19:37:05.996Z,74.60
2018-12-13T19:39:34.296Z,74.79
2018-12-13T19:42:02.682Z,74.89
2018-12-13T19:44:31.002Z,75.06
2018-12-13T19:46:59.315Z,74.63
2018-12-13T19:49:27.997Z,74.42
2018-12-13T19:51:56.289Z,75.13
2018-12-13T19:54:24.644Z,75.38
2018-12-13T19:56:52.999Z,75.50
2018-12-13T19:59:21.347Z,74.11
2018-12-13T20:01:49.710Z,74.34
2018-12-13T20:04:18.088Z,74.30
2018-12-13T20:06:46.435Z,74.14
2018-12-13T20:09:14.835Z,75.14
2018-12-13T20:11:43.286Z,74.20
2018-12-13T20:14:11.802Z,74.19
2018-12-13T20:16:40.154Z,74.52
2018-12-13T20:19:08.504Z,74.88
2018-12-13T20:21:36.923Z,78.43
2018-12-13T20:24:05.306Z,76.95
2018-12-13T20:26:33.677Z,75.97
2018-12-13T20:29:02.038Z,73.50
2018-12-13T20:31:30.376Z,74.32
2018-12-13T20:33:59.023Z,74.10
2018-12-13T20:36:27.381Z,74.43
2018-12-13T20:38:55.748Z,75.00
2018-12-13T20:41:24.144Z,74.32
2018-12-13T20:43:52.469Z,74.67
2018-12-13T20:46:20.808Z,74.91
2018-12-13T20:48:49.223Z,74.18
2018-12-13T20:51:17.559Z,73.69
2018-12-13T20:53:45.853Z,73.61
2018-12-13T20:56:14.288Z,73.17
2018-12-13T20:58:42.651Z,73.96
2018-12-13T21:01:11.087Z,72.79
2018-12-13T21:03:39.399Z,73.18
2018-12-13T21:06:07.707Z,73.26
2018-12-13T21:08:36.026Z,73.64
2018-12-13T21:11:07.424Z,73.50
2018-12-13T21:13:34.781Z,72.58
2018-12-13T21:16:03.150Z,73.42
2018-12-13T21:18:31.664Z,73.25
2018-12-13T21:21:00.005Z,73.53
2018-12-13T21:23:28.325Z,73.83
2018-12-13T21:25:56.874Z,73.48
2018-12-13T21:28:25.186Z,73.05
2018-12-13T21:30:53.505Z,72.63
2018-12-13T21:33:21.852Z,72.49
2018-12-13T21:35:50.211Z,72.68
2018-12-13T21:38:18.510Z,72.85
2018-12-13T21:40:46.937Z,72.52
2018-12-13T21:43:15.259Z,71.88
2018-12-13T21:45:43.677Z,73.04
2018-12-13T21:48:12.055Z,72.29
2018-12-13T21:50:40.355Z,72.63
2018-12-13T21:53:08.732Z,73.62
2018-12-13T21:55:37.128Z,73.30
2018-12-13T21:58:05.481Z,73.42
2018-12-13T22:00:33.835Z,73.76
2018-12-13T22:03:02.719Z,73.34
2018-12-13T22:05:31.064Z,72.01
2018-12-13T22:07:59.389Z,72.59
2018-12-13T22:10:27.740Z,73.21
2018-12-13T22:12:56.106Z,73.06
2018-12-13T22:15:24.393Z,73.51
2018-12-13T22:17:52.780Z,74.19
2018-12-13T22:20:21.146Z,73.58
2018-12-13T22:22:49.509Z,72.58
2018-12-13T22:25:18.086Z,73.18
2018-12-13T22:27:46.415Z,73.06
2018-12-13T22:30:14.749Z,73.79
2018-12-13T22:32:43.083Z,74.10
2018-12-13T22:35:11.430Z,73.45
2018-12-13T22:37:39.919Z,73.24
2018-12-13T22:40:08.357Z,72.98
2018-12-13T22:42:36.840Z,73.35
2018-12-13T22:45:06.233Z,73.37
2018-12-13T22:47:34.886Z,73.63
2018-12-13T22:50:03.234Z,73.44
2018-12-13T22:52:31.576Z,73.78
2018-12-13T22:54:59.941Z,73.38
2018-12-13T22:57:28.300Z,73.41
2018-12-13T22:59:56.639Z,73.64
2018-12-13T23:02:25.074Z,74.28
2018-12-13T23:04:53.404Z,73.22
2018-12-13T23:07:21.824Z,73.37
2018-12-13T23:09:50.354Z,73.42
2018-12-13T23:12:18.647Z,74.09
2018-12-13T23:14:47.202Z,73.62
2018-12-13T23:17:15.675Z,73.38
2018-12-13T23:19:43.992Z,73.10
2018-12-13T23:22:12.340Z,73.56
2018-12-13T23:24:40.694Z,73.70
2018-12-13T23:27:09.319Z,73.51
2018-12-13T23:29:37.645Z,73.16
2018-12-13T23:32:06.402Z,73.46
2018-12-13T23:34:34.748Z,73.38
2018-12-13T23:37:03.086Z,73.51
2018-12-13T23:39:31.456Z,73.53
2018-12-13T23:41:59.770Z,73.84
2018-12-13T23:44:28.189Z,73.35
2018-12-13T23:46:56.558Z,74.03
2018-12-13T23:49:24.903Z,73.33
2018-12-13T23:51:53.318Z,73.70
2018-12-13T23:54:21.988Z,73.21
2018-12-13T23:56:50.329Z,73.79
2018-12-13T23:59:18.727Z,73.20
